Terminal Aerodrome Forecast
Issued by NWS

Home | Current Version | Previous Version | Text Only | Print | Product List | Glossary On
Versions: 1 2 3 4 5 6 7 8 9 10 11 12
829
FTUS43 KICT 210520
TAFHUT
TAF
KHUT 210520Z 2106/2206 16009KT P6SM SKC WS015/22043KT
     FM211300 19012KT P6SM SKC
     FM211700 20017G25KT P6SM FEW080
     FM220000 17011KT P6SM SKC=

USA.gov is the U.S. government's official web portal to all federal, state and local government web resources and services.